Time;durP1;ratioP1;P1;durP2;ratioP2;P2;SDS_P1;SDS_P2;PMS_P1;PMS_P2;Temp;Humidity;BMP_temperature;BMP_pressure;BME280_temperature;BME280_humidity;BME280_pressure;Samples;Min_cycle;Max_cycle;Signal;HPM_P1;HPM_P2
2023/04/02 00:02:21;;;;;;;;;;;4.00;99.90;;;;;;5031588;28;20377;-73
2023/04/02 00:05:05;;;;;;;;;;;3.90;99.90;;;;;;5034744;28;20026;-73
2023/04/02 00:07:32;;;;;;;;;;;3.90;99.90;;;;;;5017413;28;19920;-73
2023/04/02 00:09:57;;;;;;;;;;;4.00;99.90;;;;;;5035500;28;19921;-74
2023/04/02 00:12:23;;;;;;;;;;;3.80;99.90;;;;;;5034406;28;19928;-72
2023/04/02 00:14:50;;;;;;;;;;;4.20;99.90;;;;;;5017734;28;20408;-73
2023/04/02 00:17:17;;;;;;;;;;;3.80;99.90;;;;;;5035758;28;19964;-73
2023/04/02 00:19:42;;;;;;;;;;;4.10;99.90;;;;;;5034967;28;20007;-73
2023/04/02 00:22:12;;;;;;;;;;;3.80;99.90;;;;;;5054923;28;20403;-72
2023/04/02 00:24:41;;;;;;;;;;;3.70;99.90;;;;;;5054961;28;19950;-72
2023/04/02 00:27:10;;;;;;;;;;;3.80;99.90;;;;;;5053862;28;19920;-72
2023/04/02 00:29:43;;;;;;;;;;;3.70;99.90;;;;;;5036833;28;19921;-73
2023/04/02 00:32:14;;;;;;;;;;;3.60;99.90;;;;;;5054712;28;20497;-72
2023/04/02 00:34:40;;;;;;;;;;;3.70;99.90;;;;;;5054053;28;19960;-72
2023/04/02 00:37:06;;;;;;;;;;;3.60;99.90;;;;;;5021926;28;20010;-72
2023/04/02 00:39:37;;;;;;;;;;;3.50;99.90;;;;;;5034591;28;19987;-72
2023/04/02 00:42:05;;;;;;;;;;;3.50;99.90;;;;;;5034140;28;19921;-72
2023/04/02 00:44:36;;;;;;;;;;;3.50;99.90;;;;;;5034567;28;19925;-73
2023/04/02 00:47:20;;;;;;;;;;;3.50;99.90;;;;;;5030000;28;20011;-72
2023/04/02 00:49:47;;;;;;;;;;;3.40;99.90;;;;;;5022574;28;19921;-72
2023/04/02 00:52:14;;;;;;;;;;;3.40;99.90;;;;;;5017036;28;19921;-73
2023/04/02 00:54:45;;;;;;;;;;;3.30;99.90;;;;;;5033253;28;19975;-73
2023/04/02 00:57:16;;;;;;;;;;;3.30;99.90;;;;;;5034799;28;19925;-73
2023/04/02 00:59:49;;;;;;;;;;;3.30;99.90;;;;;;5016507;28;19975;-73
2023/04/02 01:02:16;;;;;;;;;;;3.30;99.90;;;;;;5033874;28;19944;-73
2023/04/02 01:04:50;;;;;;;;;;;3.30;99.90;;;;;;5034131;28;19964;-74
2023/04/02 01:07:16;;;;;;;;;;;3.20;99.90;;;;;;5016497;28;19921;-74
2023/04/02 01:10:14;;;;;;;;;;;3.50;99.90;;;;;;5015267;28;19986;-73
2023/04/02 01:12:47;;;;;;;;;;;3.20;99.90;;;;;;4989358;28;19924;-73
2023/04/02 01:15:29;;;;;;;;;;;3.40;99.90;;;;;;5053064;28;20291;-73
2023/04/02 01:18:00;;;;;;;;;;;3.10;99.90;;;;;;5035978;28;20284;-73
2023/04/02 01:20:42;;;;;;;;;;;3.10;99.90;;;;;;5053810;28;19935;-73
2023/04/02 01:23:17;;;;;;;;;;;3.00;99.90;;;;;;5031238;28;20404;-73
2023/04/02 01:25:44;;;;;;;;;;;3.00;99.90;;;;;;5033683;28;20356;-73
2023/04/02 01:28:18;;;;;;;;;;;3.00;99.90;;;;;;5033594;28;19928;-73
2023/04/02 01:30:45;;;;;;;;;;;2.90;99.90;;;;;;5033396;28;19920;-73
2023/04/02 01:33:11;;;;;;;;;;;2.80;99.90;;;;;;5015998;28;20368;-74
2023/04/02 01:35:40;;;;;;;;;;;2.80;99.90;;;;;;5015615;28;20116;-74
2023/04/02 01:38:16;;;;;;;;;;;2.80;99.90;;;;;;5033258;28;19947;-75
2023/04/02 01:40:54;;;;;;;;;;;2.80;99.90;;;;;;5033951;28;19928;-72
2023/04/02 01:43:39;;;;;;;;;;;2.80;99.90;;;;;;5033526;28;19921;-73
2023/04/02 01:46:22;;;;;;;;;;;2.80;99.90;;;;;;5016262;28;19921;-75
2023/04/02 01:48:47;;;;;;;;;;;2.70;99.90;;;;;;5016074;28;19921;-73
2023/04/02 01:51:24;;;;;;;;;;;2.70;99.90;;;;;;5032843;28;20446;-72
2023/04/02 01:53:52;;;;;;;;;;;2.70;99.90;;;;;;5042485;28;19928;-73
2023/04/02 01:56:18;;;;;;;;;;;2.70;99.90;;;;;;5024079;28;19916;-72
2023/04/02 01:58:44;;;;;;;;;;;2.60;99.90;;;;;;5014585;28;19921;-72
2023/04/02 02:01:13;;;;;;;;;;;2.60;99.90;;;;;;5015883;28;19917;-72
2023/04/02 02:03:39;;;;;;;;;;;2.60;99.90;;;;;;5015261;28;19921;-72
2023/04/02 02:06:05;;;;;;;;;;;2.60;99.90;;;;;;5015028;28;19932;-72
2023/04/02 02:08:39;;;;;;;;;;;2.60;99.90;;;;;;5032747;28;20020;-72
2023/04/02 02:11:06;;;;;;;;;;;2.60;99.90;;;;;;5015632;28;19925;-72
2023/04/02 02:13:32;;;;;;;;;;;3.40;99.90;;;;;;5014362;28;20015;-72
2023/04/02 02:15:58;;;;;;;;;;;2.50;99.90;;;;;;5018510;28;20023;-72
2023/04/02 02:18:24;;;;;;;;;;;2.50;99.90;;;;;;5041002;28;20376;-72
2023/04/02 02:20:50;;;;;;;;;;;2.40;99.90;;;;;;5033290;28;19918;-72
2023/04/02 02:23:17;;;;;;;;;;;2.40;99.90;;;;;;5033805;28;19928;-72
2023/04/02 02:25:43;;;;;;;;;;;2.40;99.90;;;;;;5014705;28;20387;-72
2023/04/02 02:28:29;;;;;;;;;;;2.40;99.90;;;;;;5033150;28;19921;-72
2023/04/02 02:31:01;;;;;;;;;;;2.40;99.90;;;;;;5015243;28;19932;-72
2023/04/02 02:33:29;;;;;;;;;;;2.30;99.90;;;;;;5014258;28;20278;-72
2023/04/02 02:35:55;;;;;;;;;;;2.40;99.90;;;;;;5032913;28;20373;-72
2023/04/02 02:38:33;;;;;;;;;;;2.40;99.90;;;;;;5015408;28;19928;-72
2023/04/02 02:41:10;;;;;;;;;;;2.30;99.90;;;;;;5014644;28;20001;-72
2023/04/02 02:43:37;;;;;;;;;;;2.30;99.90;;;;;;5028364;28;20349;-72
2023/04/02 02:46:03;;;;;;;;;;;2.20;99.90;;;;;;5032882;28;20280;-72
2023/04/02 02:48:33;;;;;;;;;;;2.20;99.90;;;;;;5014278;28;19921;-72
2023/04/02 02:51:00;;;;;;;;;;;2.10;99.90;;;;;;5014962;28;19925;-72
2023/04/02 02:53:25;;;;;;;;;;;2.20;99.90;;;;;;5014424;28;19924;-72
2023/04/02 02:55:57;;;;;;;;;;;2.10;99.90;;;;;;5032096;28;19924;-72
2023/04/02 02:58:26;;;;;;;;;;;2.10;99.90;;;;;;5032589;28;19943;-72
2023/04/02 03:00:52;;;;;;;;;;;2.10;99.90;;;;;;5030882;28;19917;-72
2023/04/02 03:03:23;;;;;;;;;;;2.10;99.90;;;;;;5021785;28;19929;-72
2023/04/02 03:05:51;;;;;;;;;;;2.10;99.90;;;;;;5032140;28;19921;-72
2023/04/02 03:08:23;;;;;;;;;;;2.00;99.90;;;;;;5014409;28;19932;-72
2023/04/02 03:11:03;;;;;;;;;;;2.00;99.90;;;;;;5021032;28;19921;-72
2023/04/02 03:13:31;;;;;;;;;;;2.10;99.90;;;;;;5052329;28;20008;-72
2023/04/02 03:15:57;;;;;;;;;;;2.00;99.90;;;;;;5051705;28;19922;-72
2023/04/02 03:18:29;;;;;;;;;;;2.00;99.90;;;;;;5039197;28;19917;-72
2023/04/02 03:20:57;;;;;;;;;;;2.00;99.90;;;;;;5032649;28;19921;-72
2023/04/02 03:23:28;;;;;;;;;;;2.10;99.90;;;;;;5014258;28;20391;-72
2023/04/02 03:26:12;;;;;;;;;;;2.00;99.90;;;;;;5046025;28;20417;-72
2023/04/02 03:28:40;;;;;;;;;;;2.00;99.90;;;;;;5036011;28;19924;-72
2023/04/02 03:31:08;;;;;;;;;;;2.00;99.90;;;;;;5044948;28;19936;-72
2023/04/02 03:33:36;;;;;;;;;;;1.90;99.90;;;;;;5027887;28;19956;-73
2023/04/02 03:36:11;;;;;;;;;;;1.90;99.90;;;;;;5035869;28;19921;-73
2023/04/02 03:38:43;;;;;;;;;;;1.80;99.90;;;;;;5037930;28;19927;-72
2023/04/02 03:41:13;;;;;;;;;;;1.90;99.90;;;;;;5039404;28;19972;-73
2023/04/02 03:43:41;;;;;;;;;;;1.90;99.90;;;;;;5029203;28;19921;-73
2023/04/02 03:46:23;;;;;;;;;;;1.90;99.90;;;;;;5035383;28;20020;-74
2023/04/02 03:48:51;;;;;;;;;;;1.90;99.90;;;;;;5053336;28;19921;-73
2023/04/02 03:51:21;;;;;;;;;;;1.80;99.90;;;;;;5031849;28;19953;-73
2023/04/02 03:53:49;;;;;;;;;;;1.80;99.90;;;;;;5044167;28;20368;-74
2023/04/02 03:56:21;;;;;;;;;;;1.80;99.90;;;;;;5028978;28;19925;-73
2023/04/02 03:58:51;;;;;;;;;;;1.70;99.90;;;;;;5026214;28;20373;-73
2023/04/02 04:01:23;;;;;;;;;;;1.60;99.90;;;;;;5050188;28;19982;-74
2023/04/02 04:03:49;;;;;;;;;;;1.60;99.90;;;;;;5034727;28;19920;-73
2023/04/02 04:06:28;;;;;;;;;;;2.20;99.90;;;;;;5055179;28;20303;-74
2023/04/02 04:09:00;;;;;;;;;;;1.60;99.90;;;;;;5054755;28;19928;-73
2023/04/02 04:11:36;;;;;;;;;;;1.60;99.90;;;;;;5052653;28;19964;-73
2023/04/02 04:14:06;;;;;;;;;;;1.60;99.90;;;;;;5030168;28;19947;-74
2023/04/02 04:16:38;;;;;;;;;;;1.60;99.90;;;;;;5035178;28;19921;-73
2023/04/02 04:19:31;;;;;;;;;;;1.60;99.90;;;;;;5034286;28;21448;-73
2023/04/02 04:22:16;;;;;;;;;;;1.60;99.90;;;;;;5011896;28;20288;-73
2023/04/02 04:24:44;;;;;;;;;;;1.50;99.90;;;;;;5016991;28;19921;-73
2023/04/02 04:27:32;;;;;;;;;;;1.50;99.90;;;;;;5034083;28;20288;-73
2023/04/02 04:30:02;;;;;;;;;;;1.40;99.90;;;;;;5017350;28;19964;-73
2023/04/02 04:32:33;;;;;;;;;;;1.40;99.90;;;;;;5016087;28;19928;-73
2023/04/02 04:35:05;;;;;;;;;;;1.60;99.90;;;;;;5017457;28;19971;-73
2023/04/02 04:37:35;;;;;;;;;;;1.40;99.90;;;;;;5023893;28;19971;-73
2023/04/02 04:40:06;;;;;;;;;;;1.40;99.90;;;;;;5018379;28;19921;-73
2023/04/02 04:42:33;;;;;;;;;;;1.40;99.90;;;;;;5034515;28;20015;-73
2023/04/02 04:44:59;;;;;;;;;;;1.40;99.90;;;;;;5017473;28;19971;-74
2023/04/02 04:47:50;;;;;;;;;;;1.40;99.90;;;;;;5033102;28;19974;-73
2023/04/02 04:50:26;;;;;;;;;;;1.30;99.90;;;;;;5007743;28;20004;-73
2023/04/02 04:52:51;;;;;;;;;;;1.30;99.90;;;;;;5016580;28;19956;-73
2023/04/02 04:55:26;;;;;;;;;;;1.30;99.90;;;;;;5016178;28;19963;-73
2023/04/02 04:57:55;;;;;;;;;;;1.60;99.90;;;;;;5044284;28;19963;-74
2023/04/02 05:00:20;;;;;;;;;;;1.30;99.90;;;;;;5053296;28;19963;-73
2023/04/02 05:02:50;;;;;;;;;;;1.30;99.90;;;;;;5054436;28;19976;-73
2023/04/02 05:05:20;;;;;;;;;;;1.30;99.90;;;;;;5054013;28;19925;-74
2023/04/02 05:07:49;;;;;;;;;;;1.30;99.90;;;;;;5026046;28;19925;-73
2023/04/02 05:10:44;;;;;;;;;;;1.30;99.90;;;;;;5034049;28;20455;-74
2023/04/02 05:13:15;;;;;;;;;;;1.30;99.90;;;;;;5016884;28;19916;-73
2023/04/02 05:16:00;;;;;;;;;;;1.20;99.90;;;;;;5033424;28;19928;-74
2023/04/02 05:18:35;;;;;;;;;;;1.20;99.90;;;;;;5033185;28;20303;-71
2023/04/02 05:21:00;;;;;;;;;;;1.30;99.90;;;;;;5033430;28;19970;-71
2023/04/02 05:23:27;;;;;;;;;;;1.30;99.90;;;;;;5032970;28;20338;-71
2023/04/02 05:26:10;;;;;;;;;;;1.30;99.90;;;;;;5028086;28;19975;-72
2023/04/02 05:28:54;;;;;;;;;;;1.30;99.90;;;;;;5034558;28;19928;-72
2023/04/02 05:31:26;;;;;;;;;;;1.30;99.90;;;;;;5035612;28;19921;-72
2023/04/02 05:33:53;;;;;;;;;;;1.30;99.90;;;;;;5053074;28;19920;-72
2023/04/02 05:36:21;;;;;;;;;;;1.30;99.90;;;;;;5052626;28;19916;-72
2023/04/02 05:38:48;;;;;;;;;;;1.40;99.90;;;;;;5035787;28;20023;-72
2023/04/02 05:41:22;;;;;;;;;;;1.50;99.90;;;;;;5035163;28;19921;-72
2023/04/02 05:43:49;;;;;;;;;;;1.50;99.90;;;;;;5052831;28;19962;-72
2023/04/02 05:46:17;;;;;;;;;;;1.50;99.90;;;;;;5053505;28;19929;-72
2023/04/02 05:48:43;;;;;;;;;;;1.50;99.90;;;;;;5024572;28;19968;-72
2023/04/02 05:51:14;;;;;;;;;;;1.60;99.90;;;;;;5014791;28;19948;-71
2023/04/02 05:53:45;;;;;;;;;;;1.60;99.90;;;;;;5024358;28;20007;-72
2023/04/02 05:56:17;;;;;;;;;;;1.60;99.90;;;;;;5015838;28;19924;-72
2023/04/02 05:59:06;;;;;;;;;;;1.70;99.90;;;;;;5014162;28;19947;-73
2023/04/02 06:01:38;;;;;;;;;;;1.80;99.90;;;;;;5017822;28;20292;-72
2023/04/02 06:04:21;;;;;;;;;;;1.90;99.90;;;;;;5032708;28;19921;-74
2023/04/02 06:07:02;;;;;;;;;;;1.90;99.90;;;;;;5031397;28;19917;-72
2023/04/02 06:09:41;;;;;;;;;;;2.00;99.90;;;;;;5032198;28;19925;-73
2023/04/02 06:12:09;;;;;;;;;;;2.00;99.90;;;;;;5027778;28;20277;-73
2023/04/02 06:14:36;;;;;;;;;;;2.10;99.90;;;;;;5029764;28;19925;-74
2023/04/02 06:17:01;;;;;;;;;;;2.10;99.90;;;;;;5026765;28;19928;-74
2023/04/02 06:19:31;;;;;;;;;;;2.20;99.90;;;;;;5044054;28;20364;-73
2023/04/02 06:22:08;;;;;;;;;;;2.30;99.90;;;;;;5052725;28;19972;-73
2023/04/02 06:24:35;;;;;;;;;;;2.30;99.90;;;;;;5041490;28;19921;-73
2023/04/02 06:27:05;;;;;;;;;;;2.40;99.90;;;;;;5049363;28;20357;-73
2023/04/02 06:29:30;;;;;;;;;;;2.40;99.90;;;;;;5051086;28;19943;-73
2023/04/02 06:31:57;;;;;;;;;;;2.50;99.90;;;;;;5048812;28;20364;-73
2023/04/02 06:34:24;;;;;;;;;;;2.60;99.90;;;;;;5051705;28;19939;-73
2023/04/02 06:36:50;;;;;;;;;;;2.70;99.90;;;;;;5052701;28;19943;-72
2023/04/02 06:39:18;;;;;;;;;;;2.70;99.90;;;;;;5034039;28;19965;-73
2023/04/02 06:41:44;;;;;;;;;;;2.70;99.90;;;;;;5022240;28;19996;-73
2023/04/02 06:44:18;;;;;;;;;;;2.80;99.90;;;;;;5015133;28;19944;-73
2023/04/02 06:46:46;;;;;;;;;;;2.90;99.90;;;;;;5014365;28;20316;-73
2023/04/02 06:49:15;;;;;;;;;;;2.90;99.90;;;;;;5018781;28;19928;-71
2023/04/02 06:51:42;;;;;;;;;;;3.60;99.90;;;;;;5029977;28;19929;-73
2023/04/02 06:54:16;;;;;;;;;;;3.10;99.90;;;;;;5026482;28;20006;-72
2023/04/02 06:56:43;;;;;;;;;;;3.10;99.90;;;;;;5039853;28;20376;-73
2023/04/02 06:59:11;;;;;;;;;;;3.10;99.90;;;;;;5030069;28;19921;-72
2023/04/02 07:01:57;;;;;;;;;;;3.20;99.90;;;;;;5031145;28;19975;-73
2023/04/02 07:04:23;;;;;;;;;;;3.30;99.90;;;;;;5049309;28;19927;-74
2023/04/02 07:06:49;;;;;;;;;;;3.40;99.90;;;;;;5025960;28;19928;-72
2023/04/02 07:09:15;;;;;;;;;;;3.40;99.90;;;;;;5052731;28;19931;-73
2023/04/02 07:11:41;;;;;;;;;;;3.50;99.90;;;;;;5037603;28;19921;-73
2023/04/02 07:14:08;;;;;;;;;;;3.80;99.90;;;;;;5055681;28;20016;-73
2023/04/02 07:16:35;;;;;;;;;;;3.60;99.90;;;;;;5050723;28;19921;-73
2023/04/02 07:19:02;;;;;;;;;;;4.00;99.90;;;;;;5036175;28;20368;-74
2023/04/02 07:21:29;;;;;;;;;;;3.70;99.90;;;;;;5048780;28;19921;-75
2023/04/02 07:23:54;;;;;;;;;;;3.80;99.90;;;;;;5038241;28;19935;-76
2023/04/02 07:26:26;;;;;;;;;;;3.90;99.90;;;;;;5054771;28;19920;-74
2023/04/02 07:28:51;;;;;;;;;;;3.90;99.90;;;;;;5035037;28;20324;-76
2023/04/02 07:31:18;;;;;;;;;;;4.30;99.90;;;;;;5030154;28;19952;-75
2023/04/02 07:33:44;;;;;;;;;;;5.50;99.90;;;;;;5018105;28;20027;-73
2023/04/02 07:36:17;;;;;;;;;;;6.70;99.90;;;;;;5034116;28;19928;-74
2023/04/02 07:38:43;;;;;;;;;;;7.50;99.90;;;;;;5029598;28;19920;-74
2023/04/02 07:41:09;;;;;;;;;;;8.30;99.90;;;;;;5037932;28;19973;-78
2023/04/02 07:43:35;;;;;;;;;;;8.90;99.90;;;;;;5036825;28;19920;-78
2023/04/02 07:46:00;;;;;;;;;;;9.70;99.90;;;;;;5035497;28;19987;-84
2023/04/02 07:48:26;;;;;;;;;;;10.40;99.90;;;;;;5054943;28;19920;-79
2023/04/02 07:50:52;;;;;;;;;;;10.70;98.80;;;;;;5032618;28;19921;-78
2023/04/02 07:53:31;;;;;;;;;;;10.60;99.00;;;;;;5034958;28;19947;-78
2023/04/02 07:55:58;;;;;;;;;;;11.10;99.30;;;;;;5050327;28;20319;-73
2023/04/02 07:58:24;;;;;;;;;;;11.40;98.60;;;;;;5031646;28;20350;-75
2023/04/02 08:00:50;;;;;;;;;;;11.10;96.80;;;;;;5050147;28;19921;-75
2023/04/02 08:03:16;;;;;;;;;;;11.30;96.10;;;;;;5020832;28;20662;-75
2023/04/02 08:05:41;;;;;;;;;;;11.10;96.90;;;;;;5034412;28;19928;-76
2023/04/02 08:08:07;;;;;;;;;;;11.30;97.20;;;;;;5034921;28;19921;-76
2023/04/02 08:10:32;;;;;;;;;;;11.50;96.30;;;;;;5033925;28;19921;-77
2023/04/02 08:12:58;;;;;;;;;;;11.90;96.10;;;;;;5043963;28;20439;-75
2023/04/02 08:15:24;;;;;;;;;;;11.70;94.10;;;;;;5056282;28;20023;-74
2023/04/02 08:17:50;;;;;;;;;;;11.90;94.60;;;;;;5073833;28;20360;-75
2023/04/02 08:20:17;;;;;;;;;;;12.30;95.20;;;;;;5037689;28;19974;-75
2023/04/02 08:22:44;;;;;;;;;;;12.50;94.60;;;;;;5035751;28;20392;-75
2023/04/02 08:25:09;;;;;;;;;;;12.70;95.20;;;;;;5044915;28;19920;-74
2023/04/02 08:27:35;;;;;;;;;;;13.30;93.40;;;;;;5053954;28;20455;-75
2023/04/02 08:30:01;;;;;;;;;;;13.30;93.70;;;;;;5067445;28;19921;-74
2023/04/02 08:32:27;;;;;;;;;;;13.90;92.50;;;;;;5045378;28;19921;-75
2023/04/02 08:34:53;;;;;;;;;;;13.60;92.10;;;;;;5053410;28;20336;-74
2023/04/02 08:37:19;;;;;;;;;;;13.40;92.20;;;;;;5054006;28;20422;-73
2023/04/02 08:39:47;;;;;;;;;;;13.00;91.70;;;;;;5053384;28;19920;-74
2023/04/02 08:42:28;;;;;;;;;;;12.80;93.10;;;;;;5054231;28;19923;-73
2023/04/02 08:44:56;;;;;;;;;;;13.10;92.60;;;;;;5053077;28;19925;-74
2023/04/02 08:47:24;;;;;;;;;;;13.10;92.20;;;;;;5034794;28;20011;-73
2023/04/02 08:49:56;;;;;;;;;;;12.70;92.20;;;;;;5057559;28;19921;-73
2023/04/02 08:52:23;;;;;;;;;;;12.30;91.90;;;;;;5034215;28;19921;-75
2023/04/02 08:54:49;;;;;;;;;;;12.40;92.80;;;;;;5030824;28;20070;-73
2023/04/02 08:57:23;;;;;;;;;;;12.50;93.10;;;;;;5034272;28;20499;-74
2023/04/02 08:59:53;;;;;;;;;;;13.30;94.30;;;;;;5045930;28;20387;-75
2023/04/02 09:02:31;;;;;;;;;;;14.00;93.40;;;;;;5043334;28;19921;-74
2023/04/02 09:04:58;;;;;;;;;;;14.00;90.80;;;;;;5030791;28;19936;-75
2023/04/02 09:07:25;;;;;;;;;;;14.70;92.40;;;;;;5038220;28;19925;-75
2023/04/02 09:09:51;;;;;;;;;;;15.10;91.50;;;;;;5052966;28;20115;-74
2023/04/02 09:12:24;;;;;;;;;;;15.30;90.30;;;;;;5052894;28;20043;-76
2023/04/02 09:15:01;;;;;;;;;;;15.40;88.10;;;;;;5052222;28;19921;-77
2023/04/02 09:17:26;;;;;;;;;;;15.50;90.10;;;;;;5030900;28;20429;-77
2023/04/02 09:19:56;;;;;;;;;;;15.80;90.10;;;;;;5034386;28;19967;-75
2023/04/02 09:22:23;;;;;;;;;;;15.90;88.40;;;;;;5051666;28;19921;-75
2023/04/02 09:24:53;;;;;;;;;;;16.00;85.30;;;;;;5037252;28;20364;-75
2023/04/02 09:27:20;;;;;;;;;;;15.70;86.30;;;;;;5051525;28;19921;-77
2023/04/02 09:29:48;;;;;;;;;;;15.90;89.20;;;;;;5056120;28;19934;-76
2023/04/02 09:32:21;;;;;;;;;;;16.10;88.20;;;;;;5035268;28;20372;-76
2023/04/02 09:34:46;;;;;;;;;;;15.90;87.00;;;;;;5052590;28;20388;-75
2023/04/02 09:37:12;;;;;;;;;;;16.20;88.40;;;;;;5052089;28;20016;-75
2023/04/02 09:39:37;;;;;;;;;;;16.40;87.40;;;;;;5029507;28;20373;-76
2023/04/02 09:42:07;;;;;;;;;;;16.10;87.70;;;;;;5048173;28;19960;-78
2023/04/02 09:44:33;;;;;;;;;;;16.20;87.00;;;;;;5034468;28;19956;-75
2023/04/02 09:47:02;;;;;;;;;;;16.50;86.90;;;;;;5051641;28;19964;-75
2023/04/02 09:49:29;;;;;;;;;;;16.60;85.70;;;;;;5050772;28;19959;-76
2023/04/02 09:52:04;;;;;;;;;;;16.60;86.80;;;;;;5049187;28;19924;-77
2023/04/02 09:54:30;;;;;;;;;;;16.80;86.40;;;;;;5051042;28;19924;-76
2023/04/02 09:57:00;;;;;;;;;;;16.90;87.80;;;;;;5050742;28;20026;-77
2023/04/02 09:59:26;;;;;;;;;;;16.80;87.10;;;;;;5043920;28;19929;-77
2023/04/02 10:01:52;;;;;;;;;;;17.00;87.50;;;;;;5048230;28;19925;-78
2023/04/02 10:04:30;;;;;;;;;;;17.00;87.00;;;;;;5046510;28;19929;-74
2023/04/02 10:06:57;;;;;;;;;;;17.00;87.90;;;;;;5053539;28;19928;-76
2023/04/02 10:09:31;;;;;;;;;;;17.20;87.10;;;;;;5043472;28;20012;-76
2023/04/02 10:11:57;;;;;;;;;;;17.40;88.20;;;;;;5035910;28;19944;-79
2023/04/02 10:14:25;;;;;;;;;;;17.50;85.70;;;;;;5030900;28;21267;-83
2023/04/02 10:16:54;;;;;;;;;;;17.50;84.30;;;;;;5047334;28;20698;-82
2023/04/02 10:19:30;;;;;;;;;;;17.40;85.20;;;;;;5055731;28;19935;-76
2023/04/02 10:21:56;;;;;;;;;;;17.70;83.50;;;;;;5034027;28;20031;-73
2023/04/02 10:24:26;;;;;;;;;;;17.30;83.50;;;;;;5039117;28;19927;-75
2023/04/02 10:27:10;;;;;;;;;;;17.50;84.60;;;;;;5034331;28;19921;-80
2023/04/02 10:29:43;;;;;;;;;;;17.00;83.10;;;;;;5044769;28;19925;-74
2023/04/02 10:32:13;;;;;;;;;;;16.90;83.60;;;;;;5039740;28;20280;-72
2023/04/02 10:35:02;;;;;;;;;;;16.50;84.30;;;;;;5052516;28;19944;-73
2023/04/02 10:37:30;;;;;;;;;;;15.70;86.30;;;;;;5008351;28;19921;-72
2023/04/02 10:40:00;;;;;;;;;;;16.40;88.40;;;;;;5040440;28;20228;-75
2023/04/02 10:42:34;;;;;;;;;;;16.60;84.70;;;;;;5023655;28;19932;-73
2023/04/02 10:45:18;;;;;;;;;;;16.90;85.40;;;;;;5035967;28;19925;-71
2023/04/02 10:47:52;;;;;;;;;;;16.60;85.60;;;;;;5046779;28;20051;-76
2023/04/02 10:50:23;;;;;;;;;;;16.50;86.50;;;;;;5059017;28;20351;-76
2023/04/02 10:52:54;;;;;;;;;;;16.40;85.50;;;;;;5036998;28;20380;-74
2023/04/02 10:55:22;;;;;;;;;;;16.50;87.10;;;;;;5054679;28;19921;-73
2023/04/02 10:57:50;;;;;;;;;;;16.90;86.80;;;;;;5033986;28;19928;-73
2023/04/02 11:00:27;;;;;;;;;;;17.10;84.50;;;;;;5033402;28;19928;-73
2023/04/02 11:03:13;;;;;;;;;;;17.20;84.00;;;;;;5046096;28;19927;-75
2023/04/02 11:05:54;;;;;;;;;;;17.20;83.10;;;;;;5034453;28;19921;-72
2023/04/02 11:08:22;;;;;;;;;;;17.00;87.60;;;;;;5048612;28;20495;-74
2023/04/02 11:10:51;;;;;;;;;;;17.20;85.50;;;;;;5048931;28;20272;-77
2023/04/02 11:13:27;;;;;;;;;;;17.50;85.70;;;;;;5050724;28;19971;-80
2023/04/02 11:15:52;;;;;;;;;;;16.90;85.00;;;;;;5050560;28;19932;-76
2023/04/02 11:18:22;;;;;;;;;;;17.30;85.90;;;;;;5050345;28;19924;-79
2023/04/02 11:20:56;;;;;;;;;;;17.60;88.60;;;;;;5053990;28;19921;-70
2023/04/02 11:23:26;;;;;;;;;;;17.80;87.30;;;;;;5054003;28;20043;-77
2023/04/02 11:26:13;;;;;;;;;;;17.80;86.20;;;;;;5023495;28;19960;-79
2023/04/02 11:28:40;;;;;;;;;;;17.90;86.10;;;;;;5024613;28;19968;-78
2023/04/02 11:31:05;;;;;;;;;;;17.30;86.70;;;;;;5036179;28;20452;-78
2023/04/02 11:33:38;;;;;;;;;;;17.50;86.60;;;;;;5022768;28;19927;-79
2023/04/02 11:36:23;;;;;;;;;;;16.80;83.80;;;;;;5047347;28;19920;-75
2023/04/02 11:38:50;;;;;;;;;;;16.80;86.10;;;;;;5041100;28;20356;-75
2023/04/02 11:41:35;;;;;;;;;;;16.70;86.30;;;;;;5031749;28;20058;-75
2023/04/02 11:44:01;;;;;;;;;;;16.90;84.90;;;;;;5037576;28;19921;-75
2023/04/02 11:46:35;;;;;;;;;;;17.10;86.30;;;;;;5050405;28;20007;-76
2023/04/02 11:49:19;;;;;;;;;;;17.30;87.70;;;;;;5038243;28;19929;-75
2023/04/02 11:51:47;;;;;;;;;;;17.40;86.40;;;;;;5057075;28;20011;-75
2023/04/02 11:54:25;;;;;;;;;;;17.30;85.90;;;;;;5035791;28;20317;-73
2023/04/02 11:56:57;;;;;;;;;;;17.20;87.00;;;;;;5045109;28;19921;-74
2023/04/02 11:59:31;;;;;;;;;;;17.10;86.40;;;;;;5043698;28;20012;-73
2023/04/02 12:02:26;;;;;;;;;;;16.90;85.20;;;;;;5059859;28;19920;-75
2023/04/02 12:05:03;;;;;;;;;;;16.70;85.70;;;;;;4980061;28;19922;-73
2023/04/02 12:07:34;;;;;;;;;;;16.60;87.40;;;;;;5051032;28;19920;-76
2023/04/02 12:10:30;;;;;;;;;;;16.80;88.90;;;;;;5043396;28;20292;-79
2023/04/02 12:12:56;;;;;;;;;;;16.90;86.70;;;;;;4983375;28;19961;-78
2023/04/02 12:15:24;;;;;;;;;;;16.60;88.20;;;;;;5060495;28;19970;-77
2023/04/02 12:17:50;;;;;;;;;;;16.60;87.20;;;;;;5033928;28;19991;-78
2023/04/02 12:20:20;;;;;;;;;;;16.60;86.20;;;;;;5050889;28;20375;-78
2023/04/02 12:22:47;;;;;;;;;;;16.70;88.30;;;;;;5051652;28;20738;-75
2023/04/02 12:25:42;;;;;;;;;;;16.60;87.60;;;;;;5047192;28;19921;-75
2023/04/02 12:28:13;;;;;;;;;;;16.70;87.80;;;;;;5015945;28;19921;-79
2023/04/02 12:36:39;;;;;;;;;;;15.70;87.30;;;;;;5052623;28;19923;-76
2023/04/02 12:39:17;;;;;;;;;;;14.90;87.80;;;;;;5052849;28;19920;-79
2023/04/02 12:41:42;;;;;;;;;;;16.20;87.20;;;;;;5060648;28;19973;-73
2023/04/02 12:44:15;;;;;;;;;;;16.20;89.70;;;;;;5020424;28;20351;-74
2023/04/02 12:46:41;;;;;;;;;;;16.30;90.00;;;;;;5027952;28;19928;-74
2023/04/02 12:49:06;;;;;;;;;;;16.30;88.30;;;;;;5025854;28;19929;-73
2023/04/02 12:51:34;;;;;;;;;;;16.40;89.50;;;;;;5045698;28;19925;-74
2023/04/02 12:54:00;;;;;;;;;;;15.90;88.60;;;;;;5057067;28;20012;-73
2023/04/02 12:56:31;;;;;;;;;;;15.70;88.60;;;;;;5031367;28;20015;-76
2023/04/02 12:59:00;;;;;;;;;;;15.30;90.30;;;;;;5049290;28;19928;-78
2023/04/02 13:01:32;;;;;;;;;;;14.90;91.60;;;;;;5050596;28;19920;-79
2023/04/02 13:04:11;;;;;;;;;;;14.50;90.80;;;;;;5035983;28;19928;-74
2023/04/02 13:06:37;;;;;;;;;;;14.50;90.60;;;;;;5025982;28;19960;-82
2023/04/02 13:09:23;;;;;;;;;;;14.10;90.60;;;;;;5055340;28;19990;-84
2023/04/02 13:11:48;;;;;;;;;;;13.90;92.80;;;;;;5036902;28;20284;-74
2023/04/02 13:14:16;;;;;;;;;;;13.40;89.40;;;;;;5050840;28;19943;-75
2023/04/02 13:16:42;;;;;;;;;;;13.10;91.60;;;;;;5042311;28;19925;-75
2023/04/02 13:19:09;;;;;;;;;;;13.00;92.70;;;;;;5052319;28;19923;-77
2023/04/02 13:21:35;;;;;;;;;;;13.00;92.70;;;;;;5037271;28;19932;-78
2023/04/02 13:24:00;;;;;;;;;;;12.60;91.40;;;;;;5040553;28;20342;-79
2023/04/02 13:26:27;;;;;;;;;;;12.40;91.90;;;;;;5034505;28;19921;-79
2023/04/02 13:29:02;;;;;;;;;;;12.20;93.30;;;;;;5046472;28;19990;-83
2023/04/02 13:31:29;;;;;;;;;;;13.00;93.60;;;;;;5037074;28;19921;-78
2023/04/02 13:33:57;;;;;;;;;;;12.10;91.80;;;;;;5005589;28;19925;-75
2023/04/02 13:36:30;;;;;;;;;;;11.90;93.80;;;;;;4967800;28;19917;-82
2023/04/02 13:38:56;;;;;;;;;;;11.90;93.30;;;;;;5001502;28;20432;-79
2023/04/02 13:41:26;;;;;;;;;;;11.90;94.40;;;;;;5004650;28;19921;-79
2023/04/02 13:44:13;;;;;;;;;;;12.00;93.60;;;;;;4968492;28;19979;-75
2023/04/02 13:46:39;;;;;;;;;;;12.00;93.00;;;;;;4977317;28;19975;-75
2023/04/02 13:49:04;;;;;;;;;;;11.80;94.40;;;;;;4999347;28;19925;-74
2023/04/02 13:51:37;;;;;;;;;;;11.90;94.10;;;;;;4980832;28;20476;-77
2023/04/02 13:54:05;;;;;;;;;;;11.80;93.70;;;;;;4996380;28;20448;-75
2023/04/02 13:56:32;;;;;;;;;;;11.90;94.10;;;;;;4986865;28;19961;-76
2023/04/02 13:58:57;;;;;;;;;;;11.90;94.20;;;;;;4971330;28;19938;-77
2023/04/02 14:01:23;;;;;;;;;;;11.80;94.20;;;;;;4992962;28;20130;-77
2023/04/02 14:03:50;;;;;;;;;;;11.70;94.40;;;;;;4991912;28;19958;-76
2023/04/02 14:06:25;;;;;;;;;;;11.70;94.80;;;;;;4991883;28;19917;-77
2023/04/02 14:08:56;;;;;;;;;;;11.50;95.50;;;;;;4991638;28;20341;-82
2023/04/02 14:11:22;;;;;;;;;;;11.80;94.70;;;;;;5033151;28;20313;-74
2023/04/02 14:13:50;;;;;;;;;;;11.80;95.50;;;;;;5045528;28;20046;-74
2023/04/02 14:16:16;;;;;;;;;;;11.70;93.80;;;;;;5030163;28;19921;-79
2023/04/02 14:18:42;;;;;;;;;;;11.70;94.40;;;;;;5036598;28;19920;-75
2023/04/02 14:21:26;;;;;;;;;;;11.50;94.20;;;;;;5031559;28;20007;-79
2023/04/02 14:23:54;;;;;;;;;;;11.50;94.90;;;;;;5055490;28;19966;-81
2023/04/02 14:26:27;;;;;;;;;;;12.40;94.90;;;;;;5047588;28;20003;-73
2023/04/02 14:29:00;;;;;;;;;;;11.40;94.30;;;;;;5036961;28;19920;-77
2023/04/02 14:31:32;;;;;;;;;;;11.30;95.20;;;;;;5029973;28;19921;-74
2023/04/02 14:34:06;;;;;;;;;;;11.20;95.80;;;;;;5046930;28;19987;-79
2023/04/02 14:36:34;;;;;;;;;;;11.30;95.70;;;;;;5048368;28;19929;-77
2023/04/02 14:39:12;;;;;;;;;;;11.40;96.80;;;;;;5036861;28;19924;-76
2023/04/02 14:41:38;;;;;;;;;;;11.30;96.00;;;;;;5026729;28;19924;-73
2023/04/02 14:44:04;;;;;;;;;;;10.90;96.20;;;;;;5050208;28;19997;-78
2023/04/02 14:46:31;;;;;;;;;;;11.00;96.80;;;;;;5043797;28;20064;-79
2023/04/02 14:49:06;;;;;;;;;;;11.00;97.40;;;;;;5033009;28;19928;-78
2023/04/02 14:51:36;;;;;;;;;;;11.00;97.00;;;;;;5025662;28;20023;-76